createdAt,value
2018-08-17T00:00:30.998Z,19.10
2018-08-17T00:02:59.694Z,19.20
2018-08-17T00:05:28.348Z,19.20
2018-08-17T00:07:56.965Z,19.20
2018-08-17T00:10:25.583Z,19.10
2018-08-17T00:12:54.230Z,19.10
2018-08-17T00:15:22.818Z,19.10
2018-08-17T00:17:51.457Z,19.00
2018-08-17T00:20:20.117Z,18.90
2018-08-17T00:22:48.740Z,18.90
2018-08-17T00:25:18.208Z,18.90
2018-08-17T00:27:46.805Z,18.80
2018-08-17T00:30:15.399Z,18.80
2018-08-17T00:32:44.045Z,18.70
2018-08-17T00:35:12.653Z,18.70
2018-08-17T00:37:41.286Z,18.60
2018-08-17T00:40:09.917Z,18.50
2018-08-17T00:42:38.551Z,18.40
2018-08-17T00:45:07.457Z,18.40
2018-08-17T00:47:36.177Z,18.30
2018-08-17T00:50:05.243Z,18.30
2018-08-17T00:52:33.832Z,18.20
2018-08-17T00:55:02.454Z,18.10
2018-08-17T00:57:31.049Z,18.10
2018-08-17T00:59:59.677Z,18.10
2018-08-17T01:02:28.265Z,18.10
2018-08-17T01:04:56.905Z,18.00
2018-08-17T01:07:25.543Z,18.00
2018-08-17T01:09:54.233Z,17.90
2018-08-17T01:12:22.876Z,17.90
2018-08-17T01:14:51.513Z,17.80
2018-08-17T01:17:20.127Z,17.80
2018-08-17T01:19:48.777Z,17.70
2018-08-17T01:22:19.204Z,17.80
2018-08-17T01:24:47.845Z,17.90
2018-08-17T01:27:16.418Z,17.80
2018-08-17T01:29:45.030Z,17.70
2018-08-17T01:32:13.651Z,17.70
2018-08-17T01:34:42.349Z,17.70
2018-08-17T01:37:10.928Z,17.70
2018-08-17T01:39:39.548Z,17.70
2018-08-17T01:42:08.160Z,17.70
2018-08-17T01:44:36.811Z,17.60
2018-08-17T01:47:05.453Z,17.60
2018-08-17T01:49:34.081Z,17.60
2018-08-17T01:52:02.698Z,17.60
2018-08-17T01:54:31.294Z,17.60
2018-08-17T01:56:59.932Z,17.60
2018-08-17T01:59:28.505Z,17.60
2018-08-17T02:01:57.147Z,17.50
2018-08-17T02:04:25.729Z,17.60
2018-08-17T02:06:54.380Z,17.60
2018-08-17T02:09:22.989Z,17.60
2018-08-17T02:11:51.581Z,17.50
2018-08-17T02:14:20.185Z,17.60
2018-08-17T02:16:48.765Z,17.60
2018-08-17T02:19:17.371Z,17.60
2018-08-17T02:21:45.993Z,17.60
2018-08-17T02:24:14.620Z,17.70
2018-08-17T02:26:43.243Z,17.70
2018-08-17T02:29:11.859Z,17.70
2018-08-17T02:31:40.548Z,17.70
2018-08-17T02:34:09.165Z,17.70
2018-08-17T02:36:38.082Z,17.80
2018-08-17T02:39:07.378Z,17.90
2018-08-17T02:41:35.999Z,18.00
2018-08-17T02:44:04.741Z,18.00
2018-08-17T02:46:33.321Z,18.00
2018-08-17T02:49:01.981Z,18.00
2018-08-17T02:51:30.588Z,18.00
2018-08-17T02:53:59.213Z,18.00
2018-08-17T02:56:27.940Z,17.90
2018-08-17T02:58:56.595Z,17.90
2018-08-17T03:01:25.223Z,17.90
2018-08-17T03:03:53.833Z,18.00
2018-08-17T03:06:22.440Z,18.10
2018-08-17T03:08:51.119Z,18.20
2018-08-17T03:11:19.705Z,18.30
2018-08-17T03:13:48.326Z,18.40
2018-08-17T03:16:16.938Z,18.40
2018-08-17T03:18:45.557Z,18.30
2018-08-17T03:21:14.138Z,18.30
2018-08-17T03:23:42.749Z,18.20
2018-08-17T03:26:11.505Z,18.10
2018-08-17T03:28:40.120Z,18.00
2018-08-17T03:31:08.981Z,18.00
2018-08-17T03:33:37.610Z,17.90
2018-08-17T03:36:06.317Z,17.90
2018-08-17T03:38:34.905Z,17.80
2018-08-17T03:41:03.586Z,17.70
2018-08-17T03:43:32.164Z,17.70
2018-08-17T03:46:00.806Z,17.60
2018-08-17T03:48:29.436Z,17.50
2018-08-17T03:50:58.057Z,17.50
2018-08-17T03:53:26.634Z,17.50
2018-08-17T03:55:55.261Z,17.40
2018-08-17T03:58:23.839Z,17.40
2018-08-17T04:00:52.489Z,17.40
2018-08-17T04:03:21.088Z,17.30
2018-08-17T04:05:49.774Z,17.30
2018-08-17T04:08:18.366Z,17.40
2018-08-17T04:10:46.976Z,17.40
2018-08-17T04:13:15.559Z,17.40
2018-08-17T04:15:44.185Z,17.40
2018-08-17T04:18:12.826Z,17.50
2018-08-17T04:20:41.450Z,17.60
2018-08-17T04:23:10.029Z,17.70
2018-08-17T04:25:38.657Z,17.90
2018-08-17T04:28:07.272Z,18.00
2018-08-17T04:30:35.924Z,18.10
2018-08-17T04:33:04.569Z,18.20
2018-08-17T04:35:33.245Z,18.30
2018-08-17T04:38:01.839Z,18.30
2018-08-17T04:40:30.495Z,18.40
2018-08-17T04:42:59.109Z,18.40
2018-08-17T04:45:27.689Z,18.50
2018-08-17T04:47:56.353Z,18.50
2018-08-17T04:50:24.930Z,18.60
2018-08-17T04:52:53.622Z,18.60
2018-08-17T04:55:22.200Z,18.60
2018-08-17T04:57:50.877Z,18.60
2018-08-17T05:00:19.460Z,18.70
2018-08-17T05:02:48.065Z,18.70
2018-08-17T05:05:16.661Z,18.70
2018-08-17T05:07:45.308Z,18.80
2018-08-17T05:10:13.921Z,18.90
2018-08-17T05:12:42.556Z,18.90
2018-08-17T05:15:11.168Z,19.00
2018-08-17T05:17:39.788Z,19.10
2018-08-17T05:20:08.365Z,19.10
2018-08-17T05:22:36.990Z,19.10
2018-08-17T05:25:05.980Z,19.10
2018-08-17T05:27:34.645Z,19.20
2018-08-17T05:30:03.298Z,19.30
2018-08-17T05:32:31.904Z,19.30
2018-08-17T05:35:01.891Z,19.30
2018-08-17T05:37:30.531Z,19.30
2018-08-17T05:39:59.229Z,19.40
2018-08-17T05:42:27.806Z,19.40
2018-08-17T05:44:56.461Z,19.50
2018-08-17T05:47:25.074Z,19.50
2018-08-17T05:49:53.725Z,19.50
2018-08-17T05:52:22.309Z,19.50
2018-08-17T05:54:50.989Z,19.60
2018-08-17T05:57:19.585Z,19.70
2018-08-17T05:59:48.194Z,19.80
2018-08-17T06:02:16.789Z,19.70
2018-08-17T06:04:45.417Z,19.60
2018-08-17T06:07:13.982Z,19.50
2018-08-17T06:09:42.637Z,19.40
2018-08-17T06:12:11.233Z,19.40
2018-08-17T06:14:39.853Z,19.40
2018-08-17T06:17:08.445Z,19.40
2018-08-17T06:19:37.065Z,19.40
2018-08-17T06:22:05.790Z,19.50
2018-08-17T06:24:34.461Z,19.60
2018-08-17T06:27:03.177Z,19.70
2018-08-17T06:29:31.773Z,19.90
2018-08-17T06:32:00.485Z,20.00
2018-08-17T06:34:29.064Z,20.20
2018-08-17T06:36:57.693Z,20.30
2018-08-17T06:39:26.289Z,20.40
2018-08-17T06:41:54.919Z,20.90
2018-08-17T06:44:23.550Z,21.00
2018-08-17T06:46:52.295Z,21.00
2018-08-17T06:49:20.925Z,20.90
2018-08-17T06:51:49.609Z,20.70
2018-08-17T06:54:18.214Z,20.60
2018-08-17T06:56:46.837Z,20.40
2018-08-17T06:59:15.430Z,20.10
2018-08-17T07:01:44.064Z,19.90
2018-08-17T07:04:12.642Z,19.80
2018-08-17T07:06:41.347Z,19.80
2018-08-17T07:09:11.000Z,19.70
2018-08-17T07:11:40.189Z,19.60
2018-08-17T07:14:09.452Z,19.40
2018-08-17T07:16:38.527Z,19.40
2018-08-17T07:19:07.146Z,19.40
2018-08-17T07:21:35.937Z,19.40
2018-08-17T07:24:04.514Z,19.60
2018-08-17T07:26:33.142Z,19.80
2018-08-17T07:29:01.758Z,20.10
2018-08-17T07:31:30.386Z,20.50
2018-08-17T07:33:59.036Z,21.10
2018-08-17T07:36:27.598Z,22.20
2018-08-17T07:38:56.216Z,23.70
2018-08-17T07:41:24.817Z,24.50
2018-08-17T07:43:53.441Z,25.10
2018-08-17T07:46:22.082Z,25.90
2018-08-17T07:48:50.749Z,26.40
2018-08-17T07:51:19.309Z,27.10
2018-08-17T07:53:47.945Z,27.90
2018-08-17T07:56:16.550Z,29.30
2018-08-17T07:58:45.171Z,30.70
2018-08-17T08:01:13.766Z,30.70
2018-08-17T08:03:42.382Z,32.10
2018-08-17T08:06:10.986Z,33.50
2018-08-17T08:08:39.677Z,33.10
2018-08-17T08:11:08.805Z,33.40
2018-08-17T08:13:37.398Z,34.00
2018-08-17T08:16:05.989Z,34.70
2018-08-17T08:18:34.652Z,32.80
2018-08-17T08:21:03.286Z,30.70
2018-08-17T08:23:31.891Z,29.00
2018-08-17T08:26:00.641Z,27.60
2018-08-17T08:28:29.238Z,26.10
2018-08-17T08:30:57.973Z,25.50
2018-08-17T08:33:26.638Z,24.80
2018-08-17T08:35:55.256Z,24.00
2018-08-17T08:38:23.869Z,23.70
2018-08-17T08:40:52.521Z,23.60
2018-08-17T08:43:21.145Z,23.30
2018-08-17T08:45:49.811Z,22.80
2018-08-17T08:48:18.417Z,22.20
2018-08-17T08:50:47.133Z,21.80
2018-08-17T08:53:15.730Z,21.50
2018-08-17T08:55:44.361Z,21.20
2018-08-17T08:58:12.980Z,21.00
2018-08-17T09:00:41.753Z,20.80
2018-08-17T09:03:10.370Z,20.80
2018-08-17T09:05:39.077Z,20.80
2018-08-17T09:08:07.742Z,20.70
2018-08-17T09:10:36.334Z,20.80
2018-08-17T09:13:05.025Z,20.90
2018-08-17T09:15:33.649Z,21.40
2018-08-17T09:18:02.320Z,22.20
2018-08-17T09:20:31.780Z,23.90
2018-08-17T09:23:00.409Z,26.00
2018-08-17T09:25:29.053Z,27.60
2018-08-17T09:27:57.681Z,29.00
2018-08-17T09:30:26.298Z,29.40
2018-08-17T09:32:54.928Z,30.40
2018-08-17T09:35:23.578Z,30.00
2018-08-17T09:37:52.278Z,29.60
2018-08-17T09:40:20.885Z,30.50
2018-08-17T09:42:49.497Z,30.50
2018-08-17T09:45:18.082Z,29.70
2018-08-17T09:47:46.709Z,29.50
2018-08-17T09:50:16.081Z,30.10
2018-08-17T09:52:44.725Z,30.30
2018-08-17T09:55:13.350Z,30.10
2018-08-17T09:57:41.984Z,28.80
2018-08-17T10:00:11.158Z,29.10
2018-08-17T10:03:42.790Z,29.70
2018-08-17T10:06:16.729Z,29.40
2018-08-17T10:08:50.604Z,27.80
2018-08-17T10:11:19.221Z,28.20
2018-08-17T10:13:47.834Z,28.40
2018-08-17T10:16:16.419Z,28.30
2018-08-17T10:18:45.926Z,27.30
2018-08-17T10:21:15.588Z,27.40
2018-08-17T10:23:44.069Z,27.20
2018-08-17T10:26:12.707Z,27.00
2018-08-17T10:28:41.334Z,26.40
2018-08-17T10:31:09.997Z,25.40
2018-08-17T10:33:38.609Z,25.00
2018-08-17T10:36:11.270Z,25.50
2018-08-17T10:38:39.908Z,26.70
2018-08-17T10:41:08.517Z,27.60
2018-08-17T10:43:37.129Z,28.10
2018-08-17T10:46:05.740Z,28.10
2018-08-17T10:48:34.383Z,27.40
2018-08-17T10:51:03.041Z,26.10
2018-08-17T10:53:36.816Z,24.90
2018-08-17T10:56:05.511Z,24.70
2018-08-17T10:58:34.409Z,24.10
2018-08-17T11:01:03.021Z,24.40
2018-08-17T11:03:31.706Z,25.30
2018-08-17T11:06:00.346Z,26.00
2018-08-17T11:08:28.984Z,26.40
2018-08-17T11:10:57.631Z,26.40
2018-08-17T11:13:26.282Z,26.70
2018-08-17T11:15:54.952Z,26.50
2018-08-17T11:18:23.604Z,26.90
2018-08-17T11:20:54.541Z,27.10
2018-08-17T11:23:23.278Z,26.90
2018-08-17T11:25:51.881Z,26.30
2018-08-17T11:28:20.469Z,25.60
2018-08-17T11:30:49.077Z,25.20
2018-08-17T11:33:19.705Z,25.30
2018-08-17T11:35:48.323Z,25.30
2018-08-17T11:38:23.469Z,25.60
2018-08-17T11:40:52.042Z,25.80
2018-08-17T11:43:20.713Z,26.10
2018-08-17T11:45:49.352Z,25.90
2018-08-17T11:48:26.430Z,25.50
2018-08-17T11:50:55.922Z,25.10
2018-08-17T11:53:24.644Z,24.40
2018-08-17T11:55:53.205Z,24.40
2018-08-17T11:58:21.840Z,24.20
2018-08-17T12:00:50.421Z,24.30
2018-08-17T12:03:19.074Z,24.60
2018-08-17T12:05:47.662Z,24.60
2018-08-17T12:08:16.409Z,24.50
2018-08-17T12:10:49.789Z,24.30
2018-08-17T12:13:18.764Z,24.20
2018-08-17T12:15:52.625Z,23.70
2018-08-17T12:18:21.269Z,23.60
2018-08-17T12:20:49.859Z,23.70
2018-08-17T12:23:18.474Z,23.80
2018-08-17T12:25:52.393Z,23.80
2018-08-17T12:28:21.013Z,24.10
2018-08-17T12:30:49.625Z,24.40
2018-08-17T12:33:18.317Z,24.50
2018-08-17T12:35:46.933Z,24.10
2018-08-17T12:38:16.581Z,23.90
2018-08-17T12:40:50.506Z,23.70
2018-08-17T12:43:20.297Z,23.70
2018-08-17T12:45:48.928Z,23.30
2018-08-17T12:48:17.751Z,23.20
2018-08-17T12:50:46.509Z,23.20
2018-08-17T12:53:15.393Z,23.40
2018-08-17T12:55:44.381Z,23.40
2018-08-17T12:58:13.661Z,23.40
2018-08-17T13:00:42.296Z,23.50
2018-08-17T13:03:10.913Z,23.30
2018-08-17T13:05:39.589Z,23.20
2018-08-17T13:08:09.066Z,23.40
2018-08-17T13:10:37.927Z,23.40
2018-08-17T13:13:08.940Z,23.40
2018-08-17T13:15:38.311Z,23.30
2018-08-17T13:18:15.738Z,23.10
2018-08-17T13:20:44.908Z,22.80
2018-08-17T13:23:13.533Z,22.90
2018-08-17T13:25:42.205Z,22.90
2018-08-17T13:28:11.155Z,23.30
2018-08-17T13:30:39.930Z,23.40
2018-08-17T13:33:08.991Z,23.50
2018-08-17T13:35:37.607Z,23.60
2018-08-17T13:38:06.725Z,23.40
2018-08-17T13:40:35.406Z,23.60
2018-08-17T13:43:04.117Z,23.70
2018-08-17T13:45:32.715Z,23.70
2018-08-17T13:48:01.333Z,23.60
2018-08-17T13:50:29.958Z,23.70
2018-08-17T13:52:58.753Z,23.90
2018-08-17T13:55:27.432Z,23.80
2018-08-17T13:57:56.013Z,24.00
2018-08-17T14:00:24.605Z,23.80
2018-08-17T14:02:53.257Z,23.60
2018-08-17T14:05:21.885Z,23.40
2018-08-17T14:07:50.612Z,23.60
2018-08-17T14:10:19.201Z,24.00
2018-08-17T14:12:47.843Z,24.10
2018-08-17T14:15:16.468Z,24.30
2018-08-17T14:17:45.085Z,24.40
2018-08-17T14:20:15.872Z,24.60
2018-08-17T14:22:44.493Z,24.40
2018-08-17T14:25:13.124Z,24.40
2018-08-17T14:27:41.923Z,24.50
2018-08-17T14:30:14.694Z,24.10
2018-08-17T14:32:43.933Z,24.00
2018-08-17T14:35:12.792Z,24.20
2018-08-17T14:37:41.341Z,24.50
2018-08-17T14:40:10.658Z,24.50
2018-08-17T14:42:39.940Z,24.60
2018-08-17T14:45:09.581Z,24.70
2018-08-17T14:47:38.572Z,24.90
2018-08-17T14:50:09.467Z,24.70
2018-08-17T14:52:38.309Z,24.50
2018-08-17T14:55:07.237Z,24.70
2018-08-17T14:57:38.045Z,24.80
2018-08-17T15:00:10.224Z,24.80
2018-08-17T15:02:38.879Z,24.90
2018-08-17T15:05:09.218Z,24.70
2018-08-17T15:07:37.982Z,24.60
2018-08-17T15:10:08.900Z,24.40
2018-08-17T15:12:37.553Z,24.20
2018-08-17T15:15:06.557Z,24.30
2018-08-17T15:17:35.169Z,24.20
2018-08-17T15:20:04.030Z,24.30
2018-08-17T15:22:32.661Z,24.30
2018-08-17T15:25:01.341Z,24.10
2018-08-17T15:27:29.980Z,24.20
2018-08-17T15:29:58.577Z,24.40
2018-08-17T15:32:27.302Z,24.50
2018-08-17T15:34:55.925Z,24.60
2018-08-17T15:37:24.618Z,24.50
2018-08-17T15:39:53.426Z,24.60
2018-08-17T15:42:22.124Z,24.70
2018-08-17T15:44:50.732Z,24.80
2018-08-17T15:47:19.437Z,24.80
2018-08-17T15:50:21.217Z,24.50
2018-08-17T15:52:49.988Z,24.30
2018-08-17T15:55:18.625Z,24.20
2018-08-17T15:57:47.674Z,24.40
2018-08-17T16:00:19.338Z,24.50
2018-08-17T16:02:48.084Z,24.70
2018-08-17T16:05:16.877Z,25.00
2018-08-17T16:07:45.605Z,25.10
2018-08-17T16:10:15.378Z,25.00
2018-08-17T16:12:44.507Z,25.20
2018-08-17T16:15:13.139Z,25.50
2018-08-17T16:17:41.705Z,25.30
2018-08-17T16:20:11.880Z,25.20
2018-08-17T16:22:41.136Z,24.90
2018-08-17T16:25:10.629Z,24.70
2018-08-17T16:27:39.796Z,24.90
2018-08-17T16:30:11.277Z,25.10
2018-08-17T16:32:40.114Z,25.10
2018-08-17T16:35:09.149Z,25.20
2018-08-17T16:37:47.986Z,25.10
2018-08-17T16:40:16.937Z,25.20
2018-08-17T16:42:49.722Z,25.10
2018-08-17T16:45:18.469Z,24.70
2018-08-17T16:47:47.135Z,24.60
2018-08-17T16:50:15.881Z,24.60
2018-08-17T16:52:44.469Z,24.70
2018-08-17T16:55:13.162Z,24.60
2018-08-17T16:57:41.753Z,24.60
2018-08-17T17:00:11.640Z,24.40
2018-08-17T17:02:40.547Z,24.00
2018-08-17T17:05:09.269Z,23.90
2018-08-17T17:07:37.851Z,23.70
2018-08-17T17:10:09.097Z,23.40
2018-08-17T17:12:37.790Z,23.20
2018-08-17T17:15:18.817Z,23.10
2018-08-17T17:17:56.853Z,23.00
2018-08-17T17:20:26.044Z,22.80
2018-08-17T17:22:59.092Z,22.70
2018-08-17T17:25:28.248Z,22.70
2018-08-17T17:27:56.902Z,22.60
2018-08-17T17:30:30.465Z,22.50
2018-08-17T17:32:59.140Z,22.40
2018-08-17T17:35:27.769Z,22.30
2018-08-17T17:37:56.405Z,22.20
2018-08-17T17:40:25.575Z,22.10
2018-08-17T17:42:54.202Z,22.00
2018-08-17T17:45:22.882Z,21.90
2018-08-17T17:47:51.470Z,21.90
2018-08-17T17:50:20.184Z,21.90
2018-08-17T17:52:48.834Z,21.80
2018-08-17T17:55:17.450Z,21.70
2018-08-17T17:57:50.509Z,21.70
2018-08-17T18:00:19.126Z,21.50
2018-08-17T18:02:48.834Z,21.50
2018-08-17T18:05:18.613Z,21.40
2018-08-17T18:07:48.202Z,21.30
2018-08-17T18:10:19.258Z,21.20
2018-08-17T18:12:48.146Z,21.10
2018-08-17T18:15:16.717Z,21.00
2018-08-17T18:17:45.416Z,20.90
2018-08-17T18:20:14.603Z,20.80
2018-08-17T18:22:43.322Z,20.70
2018-08-17T18:25:18.082Z,20.60
2018-08-17T18:27:47.570Z,20.50
2018-08-17T18:30:16.275Z,20.40
2018-08-17T18:32:45.417Z,20.30
2018-08-17T18:35:14.140Z,20.20
2018-08-17T18:37:42.810Z,20.10
2018-08-17T18:40:12.285Z,20.00
2018-08-17T18:42:41.032Z,19.90
2018-08-17T18:45:09.838Z,19.70
2018-08-17T18:47:38.544Z,19.60
2018-08-17T18:50:08.876Z,19.50
2018-08-17T18:52:37.574Z,19.40
2018-08-17T18:55:06.328Z,19.30
2018-08-17T18:57:35.045Z,19.20
2018-08-17T19:00:05.246Z,19.20
2018-08-17T19:02:33.873Z,19.10
2018-08-17T19:05:02.523Z,19.00
2018-08-17T19:07:31.142Z,18.90
2018-08-17T19:09:59.796Z,18.90
2018-08-17T19:12:28.404Z,18.80
2018-08-17T19:14:57.018Z,18.70
2018-08-17T19:17:28.001Z,18.60
2018-08-17T19:19:56.660Z,18.60
2018-08-17T19:22:25.512Z,18.50
2018-08-17T19:24:54.197Z,18.40
2018-08-17T19:27:28.242Z,18.40
2018-08-17T19:29:56.921Z,18.30
2018-08-17T19:32:25.755Z,18.10
2018-08-17T19:34:54.402Z,18.00
2018-08-17T19:37:23.101Z,17.90
2018-08-17T19:39:51.799Z,17.90
2018-08-17T19:42:20.877Z,17.80
2018-08-17T19:44:49.741Z,17.80
2018-08-17T19:47:18.409Z,17.70
2018-08-17T19:49:47.146Z,17.60
2018-08-17T19:52:15.855Z,17.50
2018-08-17T19:54:44.546Z,17.50
2018-08-17T19:57:13.188Z,17.40
2018-08-17T19:59:41.812Z,17.30
2018-08-17T20:02:10.516Z,17.30
2018-08-17T20:04:39.163Z,17.20
2018-08-17T20:07:07.801Z,17.10
2018-08-17T20:09:36.583Z,17.10
2018-08-17T20:12:05.384Z,17.00
2018-08-17T20:14:34.045Z,16.90
2018-08-17T20:17:03.011Z,16.90
2018-08-17T20:19:37.001Z,16.80
2018-08-17T20:22:10.121Z,16.80
2018-08-17T20:24:38.713Z,16.80
2018-08-17T20:27:13.028Z,16.70
2018-08-17T20:29:41.847Z,16.60
2018-08-17T20:32:10.573Z,16.60
2018-08-17T20:34:42.425Z,16.50
2018-08-17T20:37:11.949Z,16.50
2018-08-17T20:39:41.731Z,16.50
2018-08-17T20:42:10.996Z,16.40
2018-08-17T20:44:39.647Z,16.40
2018-08-17T20:47:08.902Z,16.30
2018-08-17T20:49:37.724Z,16.20
2018-08-17T20:52:06.716Z,16.20
2018-08-17T20:54:37.339Z,16.20
2018-08-17T20:57:06.013Z,16.20
2018-08-17T20:59:34.656Z,16.20
2018-08-17T21:02:03.380Z,16.30
2018-08-17T21:04:32.002Z,16.20
2018-08-17T21:07:00.607Z,16.10
2018-08-17T21:09:29.320Z,16.00
2018-08-17T21:11:57.965Z,15.90
2018-08-17T21:14:26.621Z,15.80
2018-08-17T21:16:55.217Z,15.70
2018-08-17T21:19:30.753Z,15.60
2018-08-17T21:21:59.370Z,15.60
2018-08-17T21:24:28.094Z,15.50
2018-08-17T21:26:56.676Z,15.40
2018-08-17T21:29:25.473Z,15.40
2018-08-17T21:31:54.081Z,15.30
2018-08-17T21:34:22.771Z,15.30
2018-08-17T21:36:52.546Z,15.30
2018-08-17T21:39:22.010Z,15.30
2018-08-17T21:41:52.170Z,15.30
2018-08-17T21:44:21.622Z,15.20
2018-08-17T21:46:56.758Z,15.20
2018-08-17T21:49:26.611Z,15.10
2018-08-17T21:51:58.632Z,15.00
2018-08-17T21:54:29.835Z,15.00
2018-08-17T21:56:59.040Z,14.90
2018-08-17T21:59:34.672Z,14.90
2018-08-17T22:02:04.501Z,14.90
2018-08-17T22:04:33.945Z,14.90
2018-08-17T22:07:06.929Z,14.90
2018-08-17T22:09:38.415Z,14.90
2018-08-17T22:12:07.785Z,15.00
2018-08-17T22:14:36.785Z,15.00
2018-08-17T22:17:05.814Z,14.90
2018-08-17T22:19:41.177Z,14.90
2018-08-17T22:22:11.646Z,14.90
2018-08-17T22:24:49.417Z,14.90
2018-08-17T22:27:19.332Z,14.80
2018-08-17T22:29:51.183Z,14.80
2018-08-17T22:32:20.234Z,14.70
2018-08-17T22:34:49.417Z,14.60
2018-08-17T22:37:18.228Z,14.60
2018-08-17T22:39:47.142Z,14.60
2018-08-17T22:42:23.464Z,14.50
2018-08-17T22:44:52.108Z,14.50
2018-08-17T22:47:24.294Z,14.50
2018-08-17T22:49:53.797Z,14.40
2018-08-17T22:52:22.477Z,14.30
2018-08-17T22:54:59.027Z,14.20
2018-08-17T22:57:28.513Z,14.20
2018-08-17T23:00:10.266Z,14.30
2018-08-17T23:02:40.090Z,14.30
2018-08-17T23:05:10.613Z,14.30
2018-08-17T23:07:39.374Z,14.30
2018-08-17T23:10:12.124Z,14.20
2018-08-17T23:12:40.873Z,14.20
2018-08-17T23:15:10.521Z,14.20
2018-08-17T23:17:39.719Z,14.20
2018-08-17T23:20:08.990Z,14.20
2018-08-17T23:22:50.146Z,14.20
2018-08-17T23:25:18.842Z,14.20
2018-08-17T23:27:48.661Z,14.20
2018-08-17T23:30:17.316Z,14.20
2018-08-17T23:32:46.298Z,14.20
2018-08-17T23:35:14.965Z,14.20
2018-08-17T23:37:43.674Z,14.20
2018-08-17T23:40:12.545Z,14.20
2018-08-17T23:42:41.189Z,14.20
2018-08-17T23:45:11.740Z,14.20
2018-08-17T23:47:40.735Z,14.10
2018-08-17T23:50:10.760Z,14.10
2018-08-17T23:52:39.563Z,14.00
2018-08-17T23:55:11.427Z,14.00
2018-08-17T23:57:40.097Z,14.00
